Time;durP1;ratioP1;P1;durP2;ratioP2;P2;SDS_P1;SDS_P2;PMS_P1;PMS_P2;Temp;Humidity;BMP_temperature;BMP_pressure;BME280_temperature;BME280_humidity;BME280_pressure;Samples;Min_cycle;Max_cycle;Signal;HPM_P1;HPM_P2
2021/02/11 00:00:53;;;;;;;8.00;6.42;;;;;;;17.55;40.11;100875.47;;;;-49
2021/02/11 00:03:53;;;;;;;7.47;6.25;;;;;;;17.53;40.16;100878.99;;;;-48
2021/02/11 00:06:53;;;;;;;7.43;6.07;;;;;;;17.52;40.10;100882.47;;;;-49
2021/02/11 00:09:53;;;;;;;7.13;5.93;;;;;;;17.50;40.03;100888.98;;;;-49
2021/02/11 00:12:54;;;;;;;7.86;6.20;;;;;;;17.48;40.21;100896.56;;;;-50
2021/02/11 00:15:53;;;;;;;8.05;6.41;;;;;;;17.47;40.18;100895.34;;;;-49
2021/02/11 00:18:53;;;;;;;7.96;6.20;;;;;;;17.46;40.22;100897.89;;;;-48
2021/02/11 00:21:53;;;;;;;8.39;6.27;;;;;;;17.44;40.13;100902.71;;;;-55
2021/02/11 00:24:53;;;;;;;8.02;6.24;;;;;;;17.43;40.10;100906.31;;;;-55
2021/02/11 00:27:53;;;;;;;7.49;6.09;;;;;;;17.41;40.20;100909.47;;;;-56
2021/02/11 00:30:53;;;;;;;7.63;5.81;;;;;;;17.39;40.21;100911.20;;;;-55
2021/02/11 00:33:53;;;;;;;7.19;6.25;;;;;;;17.38;40.11;100912.05;;;;-55
2021/02/11 00:36:53;;;;;;;7.41;6.21;;;;;;;17.36;40.16;100909.82;;;;-56
2021/02/11 00:39:53;;;;;;;7.45;6.10;;;;;;;17.35;40.15;100915.48;;;;-56
2021/02/11 00:42:53;;;;;;;7.36;6.13;;;;;;;17.33;40.14;100918.36;;;;-56
2021/02/11 00:45:53;;;;;;;7.31;6.13;;;;;;;17.31;40.25;100915.31;;;;-55
2021/02/11 00:48:53;;;;;;;7.05;6.02;;;;;;;17.30;40.16;100923.30;;;;-55
2021/02/11 00:51:53;;;;;;;7.55;6.27;;;;;;;17.28;40.13;100929.56;;;;-56
2021/02/11 00:54:53;;;;;;;6.70;6.00;;;;;;;17.27;40.10;100932.47;;;;-55
2021/02/11 00:57:53;;;;;;;6.83;6.02;;;;;;;17.26;40.07;100933.16;;;;-60
2021/02/11 01:00:53;;;;;;;7.48;6.35;;;;;;;17.25;40.10;100936.55;;;;-60
2021/02/11 01:03:53;;;;;;;7.17;5.90;;;;;;;17.24;40.16;100936.06;;;;-61
2021/02/11 01:06:53;;;;;;;6.99;6.09;;;;;;;17.24;40.09;100941.13;;;;-51
2021/02/11 01:09:53;;;;;;;7.01;6.03;;;;;;;17.22;40.12;100948.78;;;;-48
2021/02/11 01:12:54;;;;;;;7.09;5.97;;;;;;;17.21;40.17;100952.66;;;;-60
2021/02/11 01:15:53;;;;;;;6.64;5.81;;;;;;;17.20;40.08;100960.11;;;;-60
2021/02/11 01:18:53;;;;;;;7.03;5.80;;;;;;;17.20;40.14;100959.14;;;;-60
2021/02/11 01:21:53;;;;;;;7.14;6.03;;;;;;;17.19;40.15;100968.73;;;;-56
2021/02/11 01:24:53;;;;;;;7.31;5.96;;;;;;;17.19;40.19;100974.72;;;;-55
2021/02/11 01:27:53;;;;;;;6.61;5.62;;;;;;;17.15;40.05;100976.57;;;;-56
2021/02/11 01:30:56;;;;;;;7.07;6.13;;;;;;;17.15;40.17;100977.70;;;;-51
2021/02/11 01:33:53;;;;;;;7.55;6.23;;;;;;;17.13;40.11;100976.68;;;;-51
2021/02/11 01:36:53;;;;;;;7.27;5.95;;;;;;;17.13;40.11;100980.08;;;;-49
2021/02/11 01:39:53;;;;;;;7.15;6.13;;;;;;;17.11;40.03;100988.30;;;;-51
2021/02/11 01:42:53;;;;;;;6.69;5.80;;;;;;;17.09;40.11;100991.41;;;;-49
2021/02/11 01:45:53;;;;;;;7.93;6.39;;;;;;;17.07;40.11;100996.54;;;;-49
2021/02/11 01:48:53;;;;;;;7.95;6.22;;;;;;;17.07;40.13;101004.06;;;;-49
2021/02/11 01:51:53;;;;;;;7.24;5.98;;;;;;;17.06;40.15;101004.95;;;;-49
2021/02/11 01:54:53;;;;;;;6.74;6.02;;;;;;;17.06;40.08;101002.28;;;;-49
2021/02/11 01:57:53;;;;;;;7.20;6.12;;;;;;;17.05;40.08;101007.50;;;;-51
2021/02/11 02:00:53;;;;;;;7.81;6.40;;;;;;;17.04;40.17;101009.67;;;;-60
2021/02/11 02:03:53;;;;;;;7.19;6.25;;;;;;;17.03;40.20;101013.68;;;;-51
2021/02/11 02:06:53;;;;;;;7.30;6.28;;;;;;;17.03;40.14;101020.56;;;;-56
2021/02/11 02:09:53;;;;;;;8.05;6.09;;;;;;;17.04;40.23;101022.14;;;;-49
2021/02/11 02:12:53;;;;;;;6.78;5.76;;;;;;;17.02;40.14;101021.69;;;;-51
2021/02/11 02:15:53;;;;;;;7.48;6.25;;;;;;;17.02;40.16;101027.11;;;;-51
2021/02/11 02:18:53;;;;;;;6.73;6.01;;;;;;;17.00;40.18;101030.05;;;;-55
2021/02/11 02:21:53;;;;;;;6.69;5.93;;;;;;;17.00;40.19;101032.97;;;;-51
2021/02/11 02:24:53;;;;;;;7.37;6.22;;;;;;;16.98;40.10;101037.78;;;;-55
2021/02/11 02:27:53;;;;;;;7.25;6.03;;;;;;;16.98;40.08;101043.03;;;;-49
2021/02/11 02:30:53;;;;;;;6.89;6.19;;;;;;;16.97;40.12;101044.29;;;;-51
2021/02/11 02:33:53;;;;;;;6.96;5.96;;;;;;;16.96;40.17;101047.36;;;;-52
2021/02/11 02:36:53;;;;;;;7.57;6.09;;;;;;;16.95;39.95;101052.69;;;;-49
2021/02/11 02:39:53;;;;;;;6.20;5.57;;;;;;;16.95;40.10;101061.80;;;;-55
2021/02/11 02:42:53;;;;;;;6.81;6.07;;;;;;;16.93;40.07;101064.13;;;;-48
2021/02/11 02:45:53;;;;;;;7.71;6.39;;;;;;;16.93;40.11;101066.23;;;;-49
2021/02/11 02:48:53;;;;;;;7.27;6.14;;;;;;;16.93;40.04;101072.76;;;;-51
2021/02/11 02:51:53;;;;;;;6.57;5.59;;;;;;;16.92;40.06;101071.86;;;;-49
2021/02/11 02:54:53;;;;;;;6.73;6.03;;;;;;;16.92;40.03;101076.08;;;;-60
2021/02/11 02:57:53;;;;;;;6.66;5.91;;;;;;;16.93;39.99;101079.40;;;;-59
2021/02/11 03:00:53;;;;;;;7.13;6.39;;;;;;;16.91;40.07;101082.54;;;;-49
2021/02/11 03:03:53;;;;;;;6.63;5.93;;;;;;;16.90;40.05;101085.25;;;;-48
2021/02/11 03:06:53;;;;;;;6.71;5.92;;;;;;;16.90;40.12;101092.93;;;;-48
2021/02/11 03:09:53;;;;;;;6.74;5.87;;;;;;;16.89;40.08;101101.47;;;;-49
2021/02/11 03:12:53;;;;;;;6.99;5.82;;;;;;;16.87;40.07;101108.17;;;;-51
2021/02/11 03:15:53;;;;;;;6.99;5.98;;;;;;;16.88;40.06;101110.69;;;;-49
2021/02/11 03:18:53;;;;;;;6.68;5.98;;;;;;;16.86;39.99;101111.03;;;;-49
2021/02/11 03:21:53;;;;;;;8.42;6.62;;;;;;;16.85;40.04;101115.48;;;;-49
2021/02/11 03:24:53;;;;;;;6.90;6.17;;;;;;;16.85;40.02;101122.16;;;;-49
2021/02/11 03:27:53;;;;;;;6.82;6.08;;;;;;;16.85;40.03;101129.38;;;;-49
2021/02/11 03:30:53;;;;;;;6.99;6.20;;;;;;;16.84;39.97;101134.05;;;;-49
2021/02/11 03:33:53;;;;;;;7.55;6.07;;;;;;;16.84;39.98;101136.97;;;;-49
2021/02/11 03:36:53;;;;;;;6.85;6.05;;;;;;;16.84;39.98;101138.91;;;;-49
2021/02/11 03:39:53;;;;;;;7.26;6.22;;;;;;;16.83;39.92;101141.17;;;;-48
2021/02/11 03:42:53;;;;;;;6.93;6.08;;;;;;;16.82;39.98;101146.63;;;;-49
2021/02/11 03:45:53;;;;;;;6.71;6.01;;;;;;;16.82;39.97;101153.59;;;;-49
2021/02/11 03:48:53;;;;;;;7.17;6.21;;;;;;;16.82;40.02;101158.52;;;;-49
2021/02/11 03:51:53;;;;;;;7.21;6.33;;;;;;;16.81;39.99;101160.38;;;;-49
2021/02/11 03:54:53;;;;;;;7.99;6.39;;;;;;;16.80;39.97;101163.53;;;;-48
2021/02/11 03:57:53;;;;;;;7.89;6.62;;;;;;;16.79;39.96;101176.80;;;;-48
2021/02/11 04:00:53;;;;;;;7.17;6.22;;;;;;;16.78;40.03;101183.07;;;;-59
2021/02/11 04:03:53;;;;;;;7.39;6.31;;;;;;;16.77;40.00;101182.97;;;;-60
2021/02/11 04:06:53;;;;;;;7.12;6.41;;;;;;;16.76;39.92;101193.69;;;;-61
2021/02/11 04:09:53;;;;;;;8.59;6.23;;;;;;;16.75;39.89;101200.72;;;;-59
2021/02/11 04:12:53;;;;;;;7.01;6.05;;;;;;;16.74;39.87;101205.45;;;;-62
2021/02/11 04:15:53;;;;;;;6.75;6.01;;;;;;;16.74;39.94;101205.44;;;;-49
2021/02/11 04:18:53;;;;;;;7.03;6.29;;;;;;;16.72;39.94;101208.06;;;;-49
2021/02/11 04:21:53;;;;;;;6.72;5.92;;;;;;;16.71;39.88;101207.06;;;;-49
2021/02/11 04:24:53;;;;;;;6.91;6.11;;;;;;;16.72;39.83;101212.34;;;;-49
2021/02/11 04:27:53;;;;;;;6.64;5.94;;;;;;;16.70;39.89;101213.98;;;;-54
2021/02/11 04:30:53;;;;;;;6.92;6.03;;;;;;;16.69;39.96;101212.68;;;;-56
2021/02/11 04:33:53;;;;;;;6.90;6.20;;;;;;;16.68;39.95;101222.19;;;;-55
2021/02/11 04:36:53;;;;;;;6.60;5.81;;;;;;;16.68;39.96;101227.20;;;;-55
2021/02/11 04:39:53;;;;;;;7.01;5.80;;;;;;;16.67;39.93;101230.27;;;;-55
2021/02/11 04:42:53;;;;;;;6.81;6.09;;;;;;;16.69;39.90;101237.35;;;;-55
2021/02/11 04:45:53;;;;;;;6.73;5.97;;;;;;;16.67;39.90;101240.06;;;;-55
2021/02/11 04:48:53;;;;;;;6.41;5.53;;;;;;;16.67;39.89;101239.73;;;;-55
2021/02/11 04:51:53;;;;;;;7.15;5.75;;;;;;;16.67;39.87;101247.83;;;;-55
2021/02/11 04:54:53;;;;;;;6.69;5.64;;;;;;;16.68;39.90;101251.47;;;;-55
2021/02/11 04:57:53;;;;;;;6.71;6.01;;;;;;;16.66;39.85;101254.94;;;;-55
2021/02/11 05:00:53;;;;;;;6.19;5.59;;;;;;;16.66;39.95;101260.96;;;;-49
2021/02/11 05:03:53;;;;;;;7.13;5.97;;;;;;;16.66;39.83;101265.25;;;;-61
2021/02/11 05:06:53;;;;;;;6.42;5.75;;;;;;;16.65;39.93;101268.71;;;;-61
2021/02/11 05:09:53;;;;;;;6.36;5.65;;;;;;;16.65;39.85;101277.46;;;;-55
2021/02/11 05:12:53;;;;;;;6.27;5.67;;;;;;;16.64;39.86;101277.66;;;;-55
2021/02/11 05:15:53;;;;;;;6.16;5.52;;;;;;;16.63;39.94;101279.58;;;;-55
2021/02/11 05:18:53;;;;;;;11.04;5.74;;;;;;;16.61;39.92;101279.35;;;;-51
2021/02/11 05:21:53;;;;;;;6.33;5.41;;;;;;;16.57;39.56;101276.56;;;;-51
2021/02/11 05:24:53;;;;;;;6.71;5.75;;;;;;;16.59;38.93;101280.34;;;;-55
2021/02/11 05:27:53;;;;;;;8.79;5.97;;;;;;;16.60;38.97;101286.59;;;;-55
2021/02/11 05:32:53;;;;;;;6.77;5.54;;;;;;;16.60;39.30;101297.22;;;;-55
2021/02/11 05:35:55;;;;;;;7.13;5.87;;;;;;;16.60;39.31;101301.59;;;;-55
2021/02/11 05:38:53;;;;;;;6.47;5.57;;;;;;;16.60;39.37;101301.43;;;;-55
2021/02/11 05:41:53;;;;;;;6.29;5.49;;;;;;;16.59;39.40;101305.84;;;;-55
2021/02/11 05:44:53;;;;;;;6.25;5.44;;;;;;;16.59;39.42;101313.12;;;;-55
2021/02/11 05:47:53;;;;;;;6.33;5.44;;;;;;;16.59;39.49;101315.39;;;;-53
2021/02/11 05:50:53;;;;;;;6.76;5.12;;;;;;;16.59;39.48;101320.24;;;;-54
2021/02/11 05:53:53;;;;;;;7.03;5.44;;;;;;;16.59;39.50;101317.23;;;;-53
2021/02/11 05:56:53;;;;;;;6.20;5.58;;;;;;;16.59;39.34;101318.86;;;;-55
2021/02/11 05:59:53;;;;;;;8.21;5.43;;;;;;;16.60;39.33;101327.94;;;;-55
2021/02/11 06:02:53;;;;;;;6.33;5.20;;;;;;;16.59;39.34;101327.60;;;;-53
2021/02/11 06:05:53;;;;;;;5.68;5.08;;;;;;;16.59;39.26;101325.91;;;;-55
2021/02/11 06:08:53;;;;;;;6.65;5.39;;;;;;;16.59;39.44;101334.40;;;;-55
2021/02/11 06:11:53;;;;;;;6.03;4.98;;;;;;;16.59;39.42;101337.14;;;;-54
2021/02/11 06:14:53;;;;;;;6.21;4.99;;;;;;;16.59;39.48;101345.73;;;;-54
2021/02/11 06:17:53;;;;;;;6.03;5.21;;;;;;;16.59;39.50;101345.48;;;;-52
2021/02/11 06:20:53;;;;;;;7.37;5.05;;;;;;;16.60;39.48;101347.28;;;;-54
2021/02/11 06:23:53;;;;;;;5.52;4.93;;;;;;;16.59;39.49;101356.82;;;;-54
2021/02/11 06:26:53;;;;;;;6.32;4.99;;;;;;;16.60;39.49;101364.34;;;;-53
2021/02/11 06:29:53;;;;;;;5.74;4.91;;;;;;;16.59;39.45;101368.15;;;;-52
2021/02/11 06:32:53;;;;;;;5.95;4.84;;;;;;;16.59;39.48;101376.41;;;;-54
2021/02/11 06:35:53;;;;;;;5.67;4.85;;;;;;;16.59;39.47;101384.73;;;;-55
2021/02/11 06:38:53;;;;;;;5.57;5.00;;;;;;;16.58;39.38;101380.11;;;;-54
2021/02/11 06:41:53;;;;;;;5.33;4.70;;;;;;;16.59;39.52;101388.12;;;;-52
2021/02/11 06:44:53;;;;;;;5.31;4.81;;;;;;;16.59;39.52;101396.14;;;;-52
2021/02/11 06:47:53;;;;;;;5.70;4.90;;;;;;;16.59;39.49;101403.67;;;;-51
2021/02/11 06:50:53;;;;;;;5.35;4.78;;;;;;;16.59;39.45;101407.30;;;;-51
2021/02/11 06:53:53;;;;;;;5.93;4.90;;;;;;;16.57;39.49;101413.48;;;;-52
2021/02/11 06:56:53;;;;;;;5.29;4.79;;;;;;;16.57;39.44;101418.02;;;;-54
2021/02/11 06:59:53;;;;;;;5.75;4.96;;;;;;;16.56;39.46;101423.98;;;;-52
2021/02/11 07:02:53;;;;;;;5.51;4.62;;;;;;;16.56;39.56;101426.33;;;;-52
2021/02/11 07:05:53;;;;;;;4.88;4.29;;;;;;;16.55;39.49;101430.32;;;;-51
2021/02/11 07:08:53;;;;;;;5.43;4.54;;;;;;;16.55;39.44;101431.37;;;;-51
2021/02/11 07:11:53;;;;;;;5.14;4.62;;;;;;;16.55;39.49;101437.27;;;;-51
2021/02/11 07:14:53;;;;;;;4.99;4.49;;;;;;;16.54;39.47;101436.89;;;;-51
2021/02/11 07:17:53;;;;;;;5.23;4.65;;;;;;;16.53;39.48;101439.95;;;;-51
2021/02/11 07:20:53;;;;;;;4.96;4.46;;;;;;;16.52;39.53;101447.14;;;;-51
2021/02/11 07:23:54;;;;;;;4.93;4.43;;;;;;;16.52;39.50;101450.86;;;;-51
2021/02/11 07:26:53;;;;;;;5.15;4.65;;;;;;;16.51;39.45;101453.16;;;;-52
2021/02/11 07:29:55;;;;;;;5.06;4.33;;;;;;;16.50;39.46;101458.73;;;;-51
2021/02/11 07:32:53;;;;;;;5.03;4.53;;;;;;;16.49;39.47;101462.08;;;;-51
2021/02/11 07:35:53;;;;;;;5.67;4.69;;;;;;;16.49;39.48;101470.72;;;;-53
2021/02/11 07:38:53;;;;;;;5.00;4.50;;;;;;;16.49;39.44;101475.82;;;;-53
2021/02/11 07:41:53;;;;;;;5.29;4.77;;;;;;;16.47;39.46;101477.53;;;;-53
2021/02/11 07:44:53;;;;;;;5.08;4.55;;;;;;;16.47;39.33;101481.90;;;;-53
2021/02/11 07:47:53;;;;;;;5.33;4.67;;;;;;;16.46;39.46;101483.74;;;;-53
2021/02/11 07:50:53;;;;;;;6.45;4.57;;;;;;;16.45;39.40;101486.45;;;;-53
2021/02/11 07:53:53;;;;;;;6.01;4.77;;;;;;;16.46;39.34;101486.82;;;;-53
2021/02/11 07:56:53;;;;;;;5.23;4.73;;;;;;;16.45;39.37;101484.73;;;;-53
2021/02/11 07:59:53;;;;;;;5.04;4.48;;;;;;;16.44;39.40;101483.36;;;;-53
2021/02/11 08:02:53;;;;;;;5.47;4.69;;;;;;;16.44;39.32;101486.51;;;;-56
2021/02/11 08:05:53;;;;;;;5.33;4.68;;;;;;;16.44;39.38;101487.14;;;;-55
2021/02/11 08:08:53;;;;;;;5.66;4.94;;;;;;;16.44;39.37;101487.14;;;;-55
2021/02/11 08:11:53;;;;;;;4.95;4.39;;;;;;;16.43;39.43;101489.28;;;;-55
2021/02/11 08:14:53;;;;;;;5.47;4.80;;;;;;;16.43;39.38;101490.41;;;;-55
2021/02/11 08:17:53;;;;;;;5.23;4.71;;;;;;;16.43;39.67;101496.89;;;;-61
2021/02/11 08:20:53;;;;;;;6.71;4.76;;;;;;;16.44;39.49;101497.83;;;;-61
2021/02/11 08:23:53;;;;;;;5.75;4.66;;;;;;;16.45;39.40;101500.20;;;;-59
2021/02/11 08:26:53;;;;;;;6.41;4.67;;;;;;;16.46;39.83;101498.48;;;;-61
2021/02/11 08:29:53;;;;;;;6.22;4.69;;;;;;;16.49;39.99;101493.88;;;;-61
2021/02/11 08:32:53;;;;;;;6.18;4.54;;;;;;;16.52;40.05;101494.96;;;;-59
2021/02/11 08:35:53;;;;;;;4.78;4.28;;;;;;;16.55;40.05;101496.59;;;;-59
2021/02/11 08:38:53;;;;;;;5.07;4.47;;;;;;;16.58;40.11;101503.11;;;;-52
2021/02/11 08:41:53;;;;;;;4.95;4.45;;;;;;;16.60;40.07;101506.34;;;;-52
2021/02/11 08:44:53;;;;;;;5.18;4.39;;;;;;;16.63;40.15;101510.71;;;;-59
2021/02/11 08:47:53;;;;;;;4.94;4.19;;;;;;;16.64;40.06;101507.21;;;;-60
2021/02/11 08:50:53;;;;;;;5.47;4.66;;;;;;;16.68;40.14;101509.81;;;;-61
2021/02/11 08:53:53;;;;;;;6.06;4.61;;;;;;;16.71;40.08;101505.24;;;;-56
2021/02/11 08:56:53;;;;;;;7.39;4.59;;;;;;;16.78;40.64;101506.61;;;;-51
2021/02/11 08:59:53;;;;;;;5.23;4.45;;;;;;;16.84;41.05;101512.43;;;;-54
2021/02/11 09:02:53;;;;;;;5.63;4.35;;;;;;;16.90;41.01;101511.27;;;;-52
2021/02/11 09:05:53;;;;;;;5.08;4.36;;;;;;;16.98;41.00;101521.33;;;;-52
2021/02/11 09:08:53;;;;;;;5.03;4.37;;;;;;;17.06;41.01;101523.95;;;;-55
2021/02/11 09:11:53;;;;;;;5.27;4.38;;;;;;;17.12;41.12;101528.50;;;;-51
2021/02/11 09:14:53;;;;;;;6.88;4.34;;;;;;;17.19;41.12;101535.47;;;;-50
2021/02/11 09:17:53;;;;;;;4.76;4.26;;;;;;;17.24;41.06;101538.22;;;;-49
2021/02/11 09:20:53;;;;;;;4.91;4.39;;;;;;;17.31;41.07;101543.89;;;;-51
2021/02/11 09:23:53;;;;;;;5.68;4.32;;;;;;;17.38;41.03;101549.70;;;;-48
2021/02/11 09:26:53;;;;;;;4.78;4.07;;;;;;;17.45;41.01;101548.13;;;;-50
2021/02/11 09:29:53;;;;;;;4.86;4.26;;;;;;;17.52;41.09;101553.47;;;;-47
2021/02/11 09:32:53;;;;;;;8.97;4.37;;;;;;;17.60;41.20;101554.14;;;;-51
2021/02/11 09:35:53;;;;;;;6.51;4.21;;;;;;;17.60;40.75;101550.89;;;;-52
2021/02/11 09:38:53;;;;;;;4.89;4.31;;;;;;;17.61;40.79;101557.64;;;;-52
2021/02/11 09:41:53;;;;;;;5.95;4.10;;;;;;;17.63;40.72;101558.03;;;;-51
2021/02/11 09:44:53;;;;;;;5.97;4.15;;;;;;;17.64;40.78;101555.89;;;;-51
2021/02/11 09:47:53;;;;;;;4.33;3.93;;;;;;;17.66;40.71;101564.80;;;;-51
2021/02/11 09:50:53;;;;;;;5.57;4.19;;;;;;;17.69;40.65;101574.52;;;;-51
2021/02/11 09:53:53;;;;;;;4.33;3.87;;;;;;;17.72;40.72;101573.30;;;;-51
2021/02/11 09:56:53;;;;;;;5.07;3.99;;;;;;;17.77;40.56;101578.02;;;;-48
2021/02/11 09:59:53;;;;;;;7.69;4.04;;;;;;;17.84;40.50;101582.55;;;;-48
2021/02/11 10:02:53;;;;;;;6.09;4.22;;;;;;;17.87;40.56;101575.85;;;;-47
2021/02/11 10:05:53;;;;;;;6.57;4.40;;;;;;;17.91;40.40;101574.27;;;;-49
2021/02/11 10:08:53;;;;;;;5.53;3.92;;;;;;;17.94;40.36;101575.48;;;;-52
2021/02/11 10:11:56;;;;;;;5.97;4.09;;;;;;;17.98;40.29;101574.55;;;;-54
2021/02/11 10:14:53;;;;;;;4.83;4.03;;;;;;;18.02;40.37;101580.44;;;;-58
2021/02/11 10:17:53;;;;;;;4.84;4.28;;;;;;;18.06;40.54;101578.52;;;;-55
2021/02/11 10:20:53;;;;;;;5.23;4.13;;;;;;;18.09;40.71;101578.45;;;;-58
2021/02/11 10:23:53;;;;;;;6.57;3.95;;;;;;;18.13;40.50;101578.89;;;;-56
2021/02/11 10:26:53;;;;;;;4.58;4.15;;;;;;;18.14;39.87;101581.77;;;;-53
2021/02/11 10:29:53;;;;;;;7.48;4.33;;;;;;;18.17;39.91;101581.85;;;;-52
2021/02/11 10:32:53;;;;;;;4.64;4.06;;;;;;;18.21;39.97;101583.66;;;;-60
2021/02/11 10:35:53;;;;;;;5.70;4.34;;;;;;;18.24;40.08;101587.44;;;;-59
2021/02/11 10:38:53;;;;;;;5.11;4.36;;;;;;;18.26;40.06;101584.16;;;;-52
2021/02/11 10:41:53;;;;;;;4.56;4.02;;;;;;;18.29;39.93;101581.48;;;;-52
2021/02/11 10:44:56;;;;;;;4.61;4.03;;;;;;;18.31;39.99;101579.92;;;;-58
2021/02/11 10:47:53;;;;;;;4.63;4.03;;;;;;;18.35;39.96;101583.03;;;;-59
2021/02/11 10:50:53;;;;;;;4.53;4.09;;;;;;;18.37;39.93;101587.64;;;;-61
2021/02/11 10:53:53;;;;;;;7.02;4.11;;;;;;;18.40;39.98;101587.47;;;;-58
2021/02/11 10:56:53;;;;;;;4.97;4.09;;;;;;;18.42;39.99;101586.14;;;;-52
2021/02/11 10:59:53;;;;;;;4.65;4.03;;;;;;;18.43;39.81;101589.93;;;;-54
2021/02/11 11:02:53;;;;;;;4.32;3.83;;;;;;;18.46;39.93;101590.49;;;;-54
2021/02/11 11:05:53;;;;;;;5.27;4.37;;;;;;;18.48;39.77;101593.63;;;;-56
2021/02/11 11:08:55;;;;;;;5.53;3.83;;;;;;;18.47;39.85;101592.40;;;;-56
2021/02/11 11:11:53;;;;;;;4.97;3.83;;;;;;;18.48;39.84;101593.31;;;;-55
2021/02/11 11:15:00;;;;;;;4.35;3.82;;;;;;;18.47;39.98;101592.89;;;;-55
2021/02/11 11:17:53;;;;;;;5.79;3.71;;;;;;;18.47;40.05;101591.67;;;;-55
2021/02/11 11:20:54;;;;;;;4.75;3.89;;;;;;;18.48;39.97;101595.58;;;;-56
2021/02/11 11:23:53;;;;;;;4.83;3.78;;;;;;;18.48;40.00;101592.33;;;;-55
2021/02/11 11:26:53;;;;;;;4.01;3.61;;;;;;;18.49;40.00;101586.53;;;;-55
2021/02/11 11:29:53;;;;;;;4.00;3.37;;;;;;;18.49;40.01;101582.39;;;;-55
2021/02/11 11:32:53;;;;;;;3.95;3.55;;;;;;;18.50;40.08;101577.94;;;;-55
2021/02/11 11:35:53;;;;;;;4.11;3.64;;;;;;;18.51;40.04;101571.20;;;;-55
2021/02/11 11:38:53;;;;;;;4.11;3.50;;;;;;;18.52;39.90;101571.83;;;;-52
2021/02/11 11:41:53;;;;;;;4.15;3.52;;;;;;;18.52;40.10;101571.66;;;;-51
2021/02/11 11:44:53;;;;;;;4.75;3.74;;;;;;;18.52;40.14;101570.13;;;;-50
2021/02/11 11:47:53;;;;;;;4.26;3.57;;;;;;;18.54;39.91;101573.34;;;;-52
2021/02/11 11:50:53;;;;;;;3.59;3.29;;;;;;;18.54;40.08;101576.67;;;;-51
2021/02/11 11:53:53;;;;;;;4.15;3.53;;;;;;;18.55;40.08;101577.13;;;;-52
2021/02/11 11:56:53;;;;;;;3.76;3.42;;;;;;;18.56;40.09;101571.53;;;;-52
2021/02/11 11:59:53;;;;;;;4.37;3.45;;;;;;;18.56;40.07;101570.56;;;;-52
2021/02/11 12:02:53;;;;;;;3.57;3.27;;;;;;;18.57;40.07;101568.98;;;;-51
2021/02/11 12:05:54;;;;;;;3.93;3.53;;;;;;;18.58;40.06;101562.74;;;;-51
2021/02/11 12:08:53;;;;;;;3.43;3.13;;;;;;;18.59;40.08;101569.98;;;;-56
2021/02/11 12:11:53;;;;;;;3.76;3.39;;;;;;;18.60;40.03;101571.97;;;;-56
2021/02/11 12:14:53;;;;;;;4.52;3.29;;;;;;;18.61;40.11;101574.02;;;;-56
2021/02/11 12:17:53;;;;;;;3.39;3.09;;;;;;;18.62;40.03;101570.89;;;;-55
2021/02/11 12:20:53;;;;;;;3.64;3.26;;;;;;;18.63;40.01;101564.81;;;;-54
2021/02/11 12:23:53;;;;;;;3.74;3.18;;;;;;;18.65;39.85;101569.58;;;;-54
2021/02/11 12:26:53;;;;;;;3.73;3.25;;;;;;;18.67;39.93;101577.03;;;;-53
2021/02/11 12:29:53;;;;;;;3.74;3.17;;;;;;;18.68;39.83;101572.36;;;;-53
2021/02/11 12:32:53;;;;;;;4.12;3.44;;;;;;;18.72;39.72;101564.03;;;;-50
2021/02/11 12:35:53;;;;;;;6.21;3.53;;;;;;;18.75;39.79;101560.03;;;;-50
2021/02/11 12:38:53;;;;;;;3.57;3.22;;;;;;;18.78;39.94;101563.38;;;;-53
2021/02/11 12:41:53;;;;;;;4.37;3.15;;;;;;;18.81;40.08;101563.47;;;;-51
2021/02/11 12:44:53;;;;;;;3.79;3.29;;;;;;;18.84;40.16;101562.20;;;;-51
2021/02/11 12:47:53;;;;;;;3.92;3.21;;;;;;;18.87;40.18;101558.59;;;;-51
2021/02/11 12:50:54;;;;;;;3.83;3.00;;;;;;;18.89;40.10;101551.75;;;;-53
2021/02/11 12:53:53;;;;;;;3.47;3.17;;;;;;;18.92;40.23;101551.66;;;;-52
2021/02/11 12:56:53;;;;;;;3.72;3.36;;;;;;;18.94;40.33;101547.31;;;;-53
2021/02/11 12:59:53;;;;;;;3.30;3.00;;;;;;;18.96;40.35;101546.48;;;;-54
2021/02/11 13:02:53;;;;;;;3.83;3.42;;;;;;;19.01;40.32;101551.63;;;;-53
2021/02/11 13:05:53;;;;;;;3.55;3.04;;;;;;;19.03;40.28;101554.55;;;;-52
2021/02/11 13:08:53;;;;;;;3.17;2.87;;;;;;;19.06;40.28;101556.65;;;;-52
2021/02/11 13:11:53;;;;;;;3.35;3.05;;;;;;;19.08;40.37;101555.81;;;;-51
2021/02/11 13:14:53;;;;;;;3.23;2.93;;;;;;;19.08;40.35;101554.43;;;;-51
2021/02/11 13:17:53;;;;;;;3.56;3.06;;;;;;;19.07;40.21;101553.37;;;;-51
2021/02/11 13:20:53;;;;;;;3.36;2.85;;;;;;;19.06;40.12;101553.31;;;;-50
2021/02/11 13:23:53;;;;;;;3.84;2.89;;;;;;;19.04;40.05;101546.61;;;;-50
2021/02/11 13:26:53;;;;;;;3.70;2.89;;;;;;;19.04;40.04;101545.47;;;;-50
2021/02/11 13:29:55;;;;;;;3.88;2.97;;;;;;;19.03;40.08;101545.66;;;;-53
2021/02/11 13:32:53;;;;;;;3.25;2.93;;;;;;;19.02;39.98;101543.71;;;;-52
2021/02/11 13:35:53;;;;;;;4.32;3.17;;;;;;;19.01;40.10;101545.89;;;;-53
2021/02/11 13:38:53;;;;;;;3.24;2.94;;;;;;;18.98;39.02;101541.42;;;;-58
2021/02/11 13:41:53;;;;;;;4.69;3.01;;;;;;;18.97;38.29;101540.99;;;;-58
2021/02/11 13:44:53;;;;;;;13.08;3.23;;;;;;;19.02;39.62;101547.86;;;;-52
2021/02/11 13:47:53;;;;;;;4.14;3.05;;;;;;;19.04;39.70;101542.30;;;;-52
2021/02/11 13:50:53;;;;;;;4.17;2.89;;;;;;;19.06;39.83;101547.06;;;;-57
2021/02/11 13:53:53;;;;;;;4.16;2.87;;;;;;;19.09;39.87;101553.62;;;;-53
2021/02/11 13:56:53;;;;;;;4.23;2.85;;;;;;;19.10;39.65;101552.61;;;;-58
2021/02/11 13:59:53;;;;;;;4.76;2.73;;;;;;;19.12;39.71;101555.83;;;;-53
2021/02/11 14:02:53;;;;;;;3.32;2.77;;;;;;;19.13;39.86;101558.84;;;;-52
2021/02/11 14:05:53;;;;;;;3.25;2.91;;;;;;;19.15;39.82;101555.81;;;;-54
2021/02/11 14:08:53;;;;;;;3.55;2.77;;;;;;;19.17;39.80;101557.44;;;;-53
2021/02/11 14:11:53;;;;;;;3.45;2.82;;;;;;;19.20;39.75;101558.63;;;;-53
2021/02/11 14:14:53;;;;;;;2.90;2.64;;;;;;;19.22;39.83;101567.22;;;;-53
2021/02/11 14:17:53;;;;;;;3.41;2.87;;;;;;;19.23;39.81;101573.81;;;;-52
2021/02/11 14:20:53;;;;;;;3.03;2.73;;;;;;;19.25;39.81;101579.72;;;;-56
2021/02/11 14:23:53;;;;;;;4.08;2.78;;;;;;;19.28;40.01;101583.39;;;;-55
2021/02/11 14:26:53;;;;;;;4.20;2.81;;;;;;;19.28;39.94;101585.74;;;;-58
2021/02/11 14:29:53;;;;;;;3.55;2.75;;;;;;;19.29;40.15;101585.02;;;;-61
2021/02/11 14:32:53;;;;;;;2.93;2.60;;;;;;;19.29;40.13;101585.19;;;;-53
2021/02/11 14:35:53;;;;;;;3.40;2.68;;;;;;;19.33;40.00;101590.56;;;;-56
2021/02/11 14:38:53;;;;;;;2.85;2.62;;;;;;;19.35;39.97;101590.05;;;;-52
2021/02/11 14:41:53;;;;;;;4.06;2.48;;;;;;;19.36;39.95;101592.38;;;;-51
2021/02/11 14:44:53;;;;;;;2.99;2.69;;;;;;;19.38;39.75;101593.41;;;;-52
2021/02/11 14:47:53;;;;;;;3.09;2.57;;;;;;;19.39;39.57;101598.20;;;;-52
2021/02/11 14:50:53;;;;;;;3.12;2.63;;;;;;;19.37;39.41;101595.47;;;;-53
2021/02/11 14:53:53;;;;;;;3.64;2.82;;;;;;;19.37;39.46;101592.70;;;;-54
2021/02/11 14:56:53;;;;;;;6.17;2.86;;;;;;;19.36;39.29;101587.58;;;;-54
2021/02/11 14:59:53;;;;;;;3.05;2.76;;;;;;;19.36;39.28;101584.53;;;;-54
2021/02/11 15:02:53;;;;;;;4.96;2.77;;;;;;;19.34;39.34;101584.44;;;;-55
2021/02/11 15:05:53;;;;;;;4.98;2.79;;;;;;;19.35;39.26;101587.05;;;;-54
2021/02/11 15:08:53;;;;;;;2.99;2.69;;;;;;;19.37;39.38;101588.16;;;;-51
2021/02/11 15:11:53;;;;;;;4.29;3.13;;;;;;;19.32;38.95;101582.36;;;;-58
2021/02/11 15:14:53;;;;;;;2.87;2.63;;;;;;;19.34;39.04;101584.52;;;;-51
2021/02/11 15:17:53;;;;;;;6.31;3.25;;;;;;;19.31;38.55;101587.67;;;;-50
2021/02/11 15:20:53;;;;;;;4.63;2.97;;;;;;;19.31;38.61;101586.86;;;;-52
2021/02/11 15:23:53;;;;;;;3.69;2.91;;;;;;;19.34;38.74;101585.49;;;;-52
2021/02/11 15:26:53;;;;;;;3.63;2.79;;;;;;;19.35;38.96;101586.39;;;;-55
2021/02/11 15:29:53;;;;;;;4.38;2.63;;;;;;;19.37;39.08;101594.17;;;;-52
2021/02/11 15:32:53;;;;;;;3.61;2.85;;;;;;;19.38;39.18;101592.91;;;;-59
2021/02/11 15:35:53;;;;;;;5.10;3.00;;;;;;;19.39;39.23;101597.72;;;;-60
2021/02/11 15:38:53;;;;;;;3.84;2.85;;;;;;;19.39;39.25;101595.19;;;;-57
2021/02/11 15:41:53;;;;;;;3.12;2.71;;;;;;;19.41;39.32;101589.22;;;;-55
2021/02/11 15:44:53;;;;;;;3.13;2.80;;;;;;;19.43;39.39;101590.50;;;;-52
2021/02/11 15:47:53;;;;;;;3.04;2.74;;;;;;;19.44;39.49;101601.97;;;;-54
2021/02/11 15:50:53;;;;;;;3.50;2.70;;;;;;;19.44;39.59;101603.06;;;;-60
2021/02/11 15:53:53;;;;;;;3.00;2.70;;;;;;;19.41;39.32;101609.70;;;;-58
2021/02/11 15:56:53;;;;;;;4.13;2.97;;;;;;;19.42;39.01;101609.72;;;;-52
2021/02/11 15:59:53;;;;;;;3.48;2.73;;;;;;;19.42;38.94;101612.48;;;;-53
2021/02/11 16:02:53;;;;;;;3.03;2.71;;;;;;;19.43;39.14;101612.20;;;;-55
2021/02/11 16:05:53;;;;;;;4.13;2.74;;;;;;;19.47;39.10;101616.69;;;;-50
2021/02/11 16:08:53;;;;;;;4.31;2.83;;;;;;;19.46;39.26;101615.19;;;;-53
2021/02/11 16:11:53;;;;;;;4.02;2.79;;;;;;;19.46;39.25;101614.55;;;;-51
2021/02/11 16:14:53;;;;;;;3.17;2.73;;;;;;;19.49;39.24;101615.77;;;;-53
2021/02/11 16:17:53;;;;;;;3.81;2.75;;;;;;;19.51;39.30;101614.28;;;;-51
2021/02/11 16:20:53;;;;;;;5.15;2.88;;;;;;;19.51;39.43;101605.57;;;;-52
2021/02/11 16:23:53;;;;;;;4.38;2.69;;;;;;;19.52;39.68;101612.98;;;;-52
2021/02/11 16:26:53;;;;;;;3.28;2.71;;;;;;;19.53;39.85;101610.98;;;;-50
2021/02/11 16:29:53;;;;;;;5.81;2.64;;;;;;;19.59;40.29;101618.34;;;;-58
2021/02/11 16:32:53;;;;;;;2.98;2.56;;;;;;;19.58;40.41;101623.30;;;;-56
2021/02/11 16:35:53;;;;;;;3.97;2.87;;;;;;;19.61;40.43;101632.42;;;;-55
2021/02/11 16:38:53;;;;;;;4.46;2.81;;;;;;;19.64;40.36;101634.51;;;;-51
2021/02/11 16:41:53;;;;;;;5.57;3.01;;;;;;;19.62;39.91;101637.80;;;;-50
2021/02/11 16:44:53;;;;;;;6.17;2.85;;;;;;;19.62;39.51;101640.80;;;;-50